Time;durP1;ratioP1;P1;durP2;ratioP2;P2;SDS_P1;SDS_P2;PMS_P1;PMS_P2;Temp;Humidity;BMP_temperature;BMP_pressure;BME280_temperature;BME280_humidity;BME280_pressure;Samples;Min_cycle;Max_cycle;Signal;HPM_P1;HPM_P2
2021/12/26 00:02:06;;;;;;;11.00;9.70;;;;;;;;;;5099118;28;25008;-56
2021/12/26 00:04:32;;;;;;;11.43;9.75;;;;;;;;;;5101038;28;24729;-56
2021/12/26 00:06:58;;;;;;;11.82;10.25;;;;;;;;;;5103215;28;24412;-56
2021/12/26 00:09:23;;;;;;;12.23;10.30;;;;;;;;;;5086772;28;24814;-56
2021/12/26 00:11:48;;;;;;;11.47;9.57;;;;;;;;;;5093502;28;24505;-57
2021/12/26 00:14:13;;;;;;;11.73;9.50;;;;;;;;;;5104711;28;24410;-56
2021/12/26 00:16:39;;;;;;;10.60;9.50;;;;;;;;;;5106512;28;24752;-55
2021/12/26 00:19:04;;;;;;;10.73;8.53;;;;;;;;;;5105587;28;24410;-56
2021/12/26 00:21:29;;;;;;;9.57;8.53;;;;;;;;;;5101220;28;24409;-55
2021/12/26 00:23:57;;;;;;;11.47;9.10;;;;;;;;;;5105018;28;24982;-55
2021/12/26 00:26:22;;;;;;;9.50;8.50;;;;;;;;;;5102361;28;24421;-55
2021/12/26 00:28:47;;;;;;;10.53;8.53;;;;;;;;;;5106968;28;24409;-56
2021/12/26 00:31:13;;;;;;;10.40;8.40;;;;;;;;;;5106361;28;25120;-54
2021/12/26 00:33:38;;;;;;;10.75;9.18;;;;;;;;;;5100489;28;24417;-55
2021/12/26 00:36:04;;;;;;;11.50;8.98;;;;;;;;;;5102862;28;24535;-55
2021/12/26 00:38:29;;;;;;;13.20;8.90;;;;;;;;;;5104281;28;24413;-54
2021/12/26 00:40:55;;;;;;;9.25;8.27;;;;;;;;;;5105692;28;24410;-55
2021/12/26 00:43:20;;;;;;;11.25;8.60;;;;;;;;;;5105816;28;24442;-55
2021/12/26 00:45:45;;;;;;;9.47;7.80;;;;;;;;;;5102701;28;24503;-55
2021/12/26 00:48:11;;;;;;;8.53;7.73;;;;;;;;;;5100523;28;24414;-54
2021/12/26 00:50:37;;;;;;;8.93;7.67;;;;;;;;;;5104235;28;24892;-56
2021/12/26 00:53:02;;;;;;;9.60;7.93;;;;;;;;;;5106698;28;24419;-55
2021/12/26 00:55:28;;;;;;;10.50;8.70;;;;;;;;;;5105208;28;24409;-55
2021/12/26 00:57:53;;;;;;;10.93;8.80;;;;;;;;;;5099951;28;24438;-56
2021/12/26 01:00:20;;;;;;;9.50;8.50;;;;;;;;;;5101847;28;24502;-56
2021/12/26 01:02:46;;;;;;;11.25;8.50;;;;;;;;;;5103698;28;24437;-56
2021/12/26 01:05:12;;;;;;;9.73;8.73;;;;;;;;;;5105679;28;24497;-56
2021/12/26 01:07:51;;;;;;;10.00;8.93;;;;;;;;;;5105714;28;24517;-56
2021/12/26 01:10:18;;;;;;;10.10;8.90;;;;;;;;;;5101064;28;24526;-55
2021/12/26 01:12:44;;;;;;;10.10;8.70;;;;;;;;;;5098776;28;20744;-56
2021/12/26 01:15:10;;;;;;;10.40;8.80;;;;;;;;;;5103743;28;24512;-55
2021/12/26 01:17:41;;;;;;;9.60;8.60;;;;;;;;;;5104370;28;24618;-55
2021/12/26 01:20:12;;;;;;;9.40;8.40;;;;;;;;;;5105841;28;20789;-55
2021/12/26 01:22:38;;;;;;;10.47;8.60;;;;;;;;;;5103063;28;24783;-56
2021/12/26 01:25:04;;;;;;;9.30;8.35;;;;;;;;;;5098580;28;24518;-57
2021/12/26 01:27:29;;;;;;;10.15;8.43;;;;;;;;;;5101092;28;24869;-55
2021/12/26 01:29:54;;;;;;;10.20;8.50;;;;;;;;;;5103694;28;24427;-55
2021/12/26 01:32:21;;;;;;;9.50;8.20;;;;;;;;;;5105339;28;24408;-55
2021/12/26 01:34:46;;;;;;;11.05;8.43;;;;;;;;;;5103016;28;24964;-56
2021/12/26 01:37:11;;;;;;;9.80;8.20;;;;;;;;;;5087613;28;24483;-57
2021/12/26 01:39:37;;;;;;;10.18;7.93;;;;;;;;;;5100714;28;24413;-56
2021/12/26 01:42:02;;;;;;;11.17;9.50;;;;;;;;;;5102079;28;24483;-56
2021/12/26 01:44:28;;;;;;;9.90;8.60;;;;;;;;;;5105594;28;24420;-56
2021/12/26 01:46:53;;;;;;;12.05;8.95;;;;;;;;;;5099459;28;24958;-57
2021/12/26 01:49:20;;;;;;;10.90;8.63;;;;;;;;;;5101163;28;24513;-57
2021/12/26 01:51:46;;;;;;;11.15;9.30;;;;;;;;;;5104747;28;25015;-56
2021/12/26 01:54:12;;;;;;;11.07;8.93;;;;;;;;;;5104822;28;24414;-56
2021/12/26 01:56:39;;;;;;;11.65;8.95;;;;;;;;;;5100618;28;24500;-56
2021/12/26 01:59:06;;;;;;;11.33;9.20;;;;;;;;;;5100781;28;24424;-56
2021/12/26 02:01:32;;;;;;;10.60;8.55;;;;;;;;;;5098207;28;25018;-56
2021/12/26 02:03:57;;;;;;;10.50;8.80;;;;;;;;;;5101040;28;24417;-56
2021/12/26 02:06:22;;;;;;;11.53;8.87;;;;;;;;;;5104108;28;24398;-56
2021/12/26 02:08:48;;;;;;;9.93;8.40;;;;;;;;;;5102661;28;24463;-57
2021/12/26 02:11:14;;;;;;;12.00;9.20;;;;;;;;;;5104732;28;24845;-56
2021/12/26 02:13:40;;;;;;;10.75;8.55;;;;;;;;;;5098977;28;25305;-56
2021/12/26 02:16:05;;;;;;;11.30;9.13;;;;;;;;;;5100744;28;24418;-56
2021/12/26 02:18:30;;;;;;;11.57;8.87;;;;;;;;;;5098219;28;24417;-56
2021/12/26 02:28:37;;;;;;;11.55;9.35;;;;;;;;;;5100453;28;20893;-56
2021/12/26 02:31:02;;;;;;;13.27;10.10;;;;;;;;;;5103053;28;24485;-56
2021/12/26 02:33:27;;;;;;;12.83;9.53;;;;;;;;;;5102014;28;24562;-56
2021/12/26 02:35:53;;;;;;;10.73;9.00;;;;;;;;;;5103627;28;24969;-55
2021/12/26 02:38:19;;;;;;;11.68;9.50;;;;;;;;;;5098345;28;24433;-56
2021/12/26 02:40:46;;;;;;;10.32;9.23;;;;;;;;;;5102115;28;24456;-55
2021/12/26 02:43:14;;;;;;;11.48;9.23;;;;;;;;;;5085866;28;24996;-55
2021/12/26 02:45:39;;;;;;;10.45;9.35;;;;;;;;;;5096310;28;24417;-55
2021/12/26 02:48:07;;;;;;;10.32;8.90;;;;;;;;;;5099337;28;24531;-56
2021/12/26 02:50:32;;;;;;;11.38;9.65;;;;;;;;;;5099017;28;24406;-56
2021/12/26 02:52:59;;;;;;;10.50;9.00;;;;;;;;;;5103853;28;24497;-55
2021/12/26 02:55:24;;;;;;;11.50;9.10;;;;;;;;;;5103349;28;24410;-55
2021/12/26 02:57:50;;;;;;;12.00;9.90;;;;;;;;;;5100162;28;24962;-56
2021/12/26 03:00:16;;;;;;;11.52;9.82;;;;;;;;;;5097472;28;24483;-55
2021/12/26 03:02:42;;;;;;;13.37;10.10;;;;;;;;;;5101782;28;25014;-56
2021/12/26 03:05:08;;;;;;;13.30;9.77;;;;;;;;;;5103347;28;24508;-56
2021/12/26 03:07:33;;;;;;;13.30;10.05;;;;;;;;;;5099872;28;24760;-57
2021/12/26 03:10:00;;;;;;;12.27;9.80;;;;;;;;;;5099578;28;26688;-56
2021/12/26 03:12:26;;;;;;;14.30;10.52;;;;;;;;;;5099993;28;24531;-55
2021/12/26 03:14:51;;;;;;;11.43;10.10;;;;;;;;;;5103248;28;24422;-55
2021/12/26 03:17:17;;;;;;;13.50;10.23;;;;;;;;;;5103258;28;25032;-56
2021/12/26 03:19:42;;;;;;;13.50;10.30;;;;;;;;;;5100148;28;24471;-56
2021/12/26 03:22:07;;;;;;;11.80;9.05;;;;;;;;;;5096654;28;24512;-55
2021/12/26 03:24:32;;;;;;;12.77;9.43;;;;;;;;;;5099113;28;24455;-55
2021/12/26 03:27:01;;;;;;;11.73;10.07;;;;;;;;;;5099870;28;24425;-55
2021/12/26 03:29:27;;;;;;;10.60;8.70;;;;;;;;;;5102919;28;20833;-55
2021/12/26 03:31:52;;;;;;;11.80;9.93;;;;;;;;;;5101178;28;24529;-55
2021/12/26 03:34:17;;;;;;;12.95;9.73;;;;;;;;;;5101202;28;24495;-56
2021/12/26 03:36:42;;;;;;;12.95;9.98;;;;;;;;;;5096699;28;24426;-55
2021/12/26 03:39:08;;;;;;;11.27;9.40;;;;;;;;;;5101144;28;24951;-55
2021/12/26 03:41:33;;;;;;;11.45;9.15;;;;;;;;;;5099370;28;24405;-55
2021/12/26 03:43:58;;;;;;;10.87;8.53;;;;;;;;;;5102671;28;24517;-55
2021/12/26 03:46:23;;;;;;;10.50;9.27;;;;;;;;;;5099002;28;25004;-56
2021/12/26 03:48:48;;;;;;;10.38;9.05;;;;;;;;;;5096106;28;24455;-55
2021/12/26 03:51:14;;;;;;;11.65;9.02;;;;;;;;;;5103227;28;24402;-55
2021/12/26 03:53:39;;;;;;;11.63;9.60;;;;;;;;;;5100312;28;24474;-55
2021/12/26 03:56:04;;;;;;;10.02;8.90;;;;;;;;;;5103556;28;24417;-56
2021/12/26 03:58:29;;;;;;;11.73;9.27;;;;;;;;;;5098839;28;24402;-55
2021/12/26 04:00:55;;;;;;;10.70;8.50;;;;;;;;;;5100692;28;24425;-56
2021/12/26 04:03:23;;;;;;;10.50;9.40;;;;;;;;;;5102680;28;24868;-56
2021/12/26 04:05:49;;;;;;;10.80;9.10;;;;;;;;;;5100984;28;24483;-55
2021/12/26 04:08:14;;;;;;;10.50;8.40;;;;;;;;;;5097719;28;24813;-57
2021/12/26 04:10:39;;;;;;;10.43;8.98;;;;;;;;;;5100541;28;24888;-58
2021/12/26 04:13:06;;;;;;;11.37;9.30;;;;;;;;;;5102064;28;24835;-56
2021/12/26 04:15:31;;;;;;;10.35;8.65;;;;;;;;;;5100439;28;24445;-58
2021/12/26 04:17:57;;;;;;;12.17;9.20;;;;;;;;;;5103006;28;24966;-55
2021/12/26 04:20:22;;;;;;;11.30;8.90;;;;;;;;;;5097389;28;24471;-56
2021/12/26 04:22:48;;;;;;;9.17;8.03;;;;;;;;;;5096042;28;24491;-56
2021/12/26 04:25:13;;;;;;;9.90;8.32;;;;;;;;;;5102420;28;24429;-56
2021/12/26 04:27:38;;;;;;;10.67;8.90;;;;;;;;;;5100209;28;24420;-56
2021/12/26 04:30:06;;;;;;;10.57;8.90;;;;;;;;;;5100783;28;24496;-56
2021/12/26 04:32:31;;;;;;;11.85;9.27;;;;;;;;;;5092270;28;24504;-56
2021/12/26 04:34:57;;;;;;;9.90;8.83;;;;;;;;;;5096513;28;24557;-56
2021/12/26 04:37:22;;;;;;;12.50;9.30;;;;;;;;;;5103361;28;24406;-57
2021/12/26 04:39:47;;;;;;;12.60;9.87;;;;;;;;;;5101000;28;25089;-57
2021/12/26 04:42:12;;;;;;;11.13;8.80;;;;;;;;;;5100289;28;24429;-57
2021/12/26 04:44:38;;;;;;;11.13;9.13;;;;;;;;;;5094947;28;24510;-56
2021/12/26 04:47:03;;;;;;;10.60;9.50;;;;;;;;;;5102410;28;24421;-56
2021/12/26 04:49:30;;;;;;;11.55;9.07;;;;;;;;;;5100320;28;21387;-56
2021/12/26 04:51:55;;;;;;;11.57;9.53;;;;;;;;;;5101979;28;24763;-56
2021/12/26 04:54:20;;;;;;;9.97;8.83;;;;;;;;;;5098172;28;24879;-56
2021/12/26 04:56:46;;;;;;;10.55;8.88;;;;;;;;;;5098495;28;24438;-56
2021/12/26 04:59:11;;;;;;;12.67;9.13;;;;;;;;;;5102837;28;24413;-56
2021/12/26 05:01:36;;;;;;;10.15;8.75;;;;;;;;;;5105449;28;25341;-56
2021/12/26 05:04:02;;;;;;;11.03;8.93;;;;;;;;;;5102077;28;24438;-56
2021/12/26 05:06:28;;;;;;;10.10;8.50;;;;;;;;;;5101571;28;25407;-56
2021/12/26 05:08:53;;;;;;;10.10;8.32;;;;;;;;;;5102151;28;24958;-56
2021/12/26 05:11:18;;;;;;;11.73;8.20;;;;;;;;;;5105645;28;24598;-56
2021/12/26 05:13:43;;;;;;;11.80;9.10;;;;;;;;;;5103410;28;24502;-56
2021/12/26 05:16:08;;;;;;;11.88;8.95;;;;;;;;;;5105126;28;24437;-56
2021/12/26 05:18:33;;;;;;;10.73;9.10;;;;;;;;;;5099458;28;24414;-54
2021/12/26 05:20:59;;;;;;;10.00;9.00;;;;;;;;;;5099823;28;24414;-57
2021/12/26 05:23:24;;;;;;;11.45;9.18;;;;;;;;;;5102108;28;24429;-55
2021/12/26 05:25:49;;;;;;;11.17;9.30;;;;;;;;;;5099494;28;24420;-55
2021/12/26 05:28:14;;;;;;;10.13;9.03;;;;;;;;;;5103550;28;24981;-56
2021/12/26 05:30:40;;;;;;;11.90;8.60;;;;;;;;;;5103116;28;24500;-55
2021/12/26 05:33:05;;;;;;;11.00;8.43;;;;;;;;;;5105928;28;24958;-57
2021/12/26 05:35:31;;;;;;;10.73;8.32;;;;;;;;;;5101591;28;24499;-57
2021/12/26 05:37:57;;;;;;;11.17;8.97;;;;;;;;;;5100860;28;24433;-59
2021/12/26 05:40:22;;;;;;;11.97;9.30;;;;;;;;;;5103383;28;24426;-56
2021/12/26 05:42:47;;;;;;;10.10;8.90;;;;;;;;;;5101349;28;24959;-57
2021/12/26 05:45:13;;;;;;;10.93;8.97;;;;;;;;;;5105081;28;24405;-57
2021/12/26 05:47:39;;;;;;;10.90;9.32;;;;;;;;;;5100736;28;24540;-57
2021/12/26 05:50:05;;;;;;;12.95;9.35;;;;;;;;;;5099620;28;24467;-58
2021/12/26 05:52:30;;;;;;;11.55;9.15;;;;;;;;;;5103618;28;24509;-55
2021/12/26 05:54:55;;;;;;;13.25;9.50;;;;;;;;;;5104912;28;24429;-56
2021/12/26 05:57:21;;;;;;;10.67;9.57;;;;;;;;;;5105012;28;25041;-56
2021/12/26 05:59:46;;;;;;;9.77;8.77;;;;;;;;;;5100663;28;24410;-56
2021/12/26 06:02:11;;;;;;;11.73;9.45;;;;;;;;;;5098824;28;25070;-55
2021/12/26 06:04:37;;;;;;;11.80;9.70;;;;;;;;;;5102742;28;24414;-56
2021/12/26 06:07:02;;;;;;;12.83;9.60;;;;;;;;;;5104682;28;24418;-55
2021/12/26 06:09:27;;;;;;;10.67;9.17;;;;;;;;;;5104166;28;24412;-55
2021/12/26 06:11:52;;;;;;;12.55;9.55;;;;;;;;;;5097972;28;24415;-55
2021/12/26 06:14:18;;;;;;;10.67;9.30;;;;;;;;;;5102903;28;24493;-56
2021/12/26 06:16:43;;;;;;;11.00;8.80;;;;;;;;;;5104556;28;24406;-56
2021/12/26 06:19:08;;;;;;;12.73;9.40;;;;;;;;;;5103764;28;25011;-56
2021/12/26 06:21:33;;;;;;;10.50;8.83;;;;;;;;;;5094745;28;24564;-55
2021/12/26 06:23:58;;;;;;;9.87;8.83;;;;;;;;;;5102604;28;24487;-56
2021/12/26 06:26:25;;;;;;;13.10;9.47;;;;;;;;;;5104728;28;24788;-56
2021/12/26 06:28:51;;;;;;;12.03;9.30;;;;;;;;;;5102496;28;24463;-56
2021/12/26 06:31:16;;;;;;;12.20;9.40;;;;;;;;;;5101440;28;24418;-56
2021/12/26 06:33:42;;;;;;;10.85;8.82;;;;;;;;;;5098131;28;24420;-56
2021/12/26 06:36:08;;;;;;;10.13;8.10;;;;;;;;;;5102148;28;24821;-55
2021/12/26 06:38:34;;;;;;;9.77;8.02;;;;;;;;;;5102702;28;24467;-56
2021/12/26 06:40:59;;;;;;;10.83;8.57;;;;;;;;;;5103389;28;24422;-56
2021/12/26 06:43:25;;;;;;;12.32;8.40;;;;;;;;;;5100982;28;24482;-56
2021/12/26 06:45:50;;;;;;;9.25;7.75;;;;;;;;;;5095688;28;24512;-56
2021/12/26 06:48:15;;;;;;;10.53;8.37;;;;;;;;;;5100492;28;24394;-57
2021/12/26 06:50:40;;;;;;;10.60;8.50;;;;;;;;;;5103590;28;24401;-56
2021/12/26 06:53:05;;;;;;;9.65;8.10;;;;;;;;;;5103753;28;24779;-55
2021/12/26 06:55:31;;;;;;;9.53;8.47;;;;;;;;;;5104298;28;24413;-56
2021/12/26 06:57:56;;;;;;;10.67;8.57;;;;;;;;;;5099641;28;24450;-56
2021/12/26 07:00:21;;;;;;;11.03;8.33;;;;;;;;;;5097462;28;24722;-56
2021/12/26 07:02:46;;;;;;;13.13;8.73;;;;;;;;;;5096644;28;24434;-56
2021/12/26 07:05:12;;;;;;;10.20;8.27;;;;;;;;;;5104573;28;24402;-56
2021/12/26 07:07:38;;;;;;;12.32;8.15;;;;;;;;;;5103312;28;24470;-56
2021/12/26 07:10:03;;;;;;;8.80;7.53;;;;;;;;;;5098171;28;24501;-57
2021/12/26 07:12:29;;;;;;;9.60;7.25;;;;;;;;;;5099375;28;24527;-56
2021/12/26 07:14:54;;;;;;;8.07;7.27;;;;;;;;;;5101051;28;24433;-56
2021/12/26 07:17:19;;;;;;;8.73;7.20;;;;;;;;;;5100122;28;24417;-56
2021/12/26 07:19:44;;;;;;;8.20;7.25;;;;;;;;;;5095429;28;24425;-55
2021/12/26 07:22:09;;;;;;;9.27;7.70;;;;;;;;;;5099491;28;24433;-56
2021/12/26 07:24:34;;;;;;;8.30;7.00;;;;;;;;;;5097370;28;24470;-56
2021/12/26 07:26:59;;;;;;;8.73;7.50;;;;;;;;;;5095971;28;24433;-56
2021/12/26 07:29:25;;;;;;;9.65;7.63;;;;;;;;;;5098595;28;24421;-56
2021/12/26 07:31:50;;;;;;;9.70;7.70;;;;;;;;;;5096909;28;24447;-56
2021/12/26 07:34:15;;;;;;;9.95;7.50;;;;;;;;;;5095490;28;24494;-57
2021/12/26 07:36:40;;;;;;;9.33;7.20;;;;;;;;;;5093744;28;24414;-57
2021/12/26 07:39:05;;;;;;;9.33;7.30;;;;;;;;;;5101203;28;24976;-57
2021/12/26 07:41:31;;;;;;;9.73;7.50;;;;;;;;;;5099737;28;24490;-57
2021/12/26 07:43:56;;;;;;;8.97;6.87;;;;;;;;;;5093301;28;24480;-57
2021/12/26 07:46:22;;;;;;;8.20;7.20;;;;;;;;;;5091770;28;24428;-55
2021/12/26 07:48:47;;;;;;;10.52;8.10;;;;;;;;;;5094002;28;24940;-56
2021/12/26 07:51:12;;;;;;;8.90;7.20;;;;;;;;;;5099492;28;24782;-57
2021/12/26 07:53:37;;;;;;;9.83;7.70;;;;;;;;;;5098659;28;24521;-56
2021/12/26 07:56:03;;;;;;;9.33;8.30;;;;;;;;;;5099025;28;24425;-56
2021/12/26 07:58:28;;;;;;;10.80;8.30;;;;;;;;;;5100116;28;24418;-57
2021/12/26 08:00:53;;;;;;;10.93;7.95;;;;;;;;;;5092081;28;24441;-56
2021/12/26 08:03:18;;;;;;;10.47;8.70;;;;;;;;;;5088951;28;24981;-57
2021/12/26 08:05:44;;;;;;;9.73;8.10;;;;;;;;;;5099948;28;24521;-56
2021/12/26 08:08:09;;;;;;;11.10;8.27;;;;;;;;;;5093862;28;24744;-57
2021/12/26 08:10:34;;;;;;;9.63;7.37;;;;;;;;;;5094864;28;24415;-56
2021/12/26 08:12:59;;;;;;;10.93;8.13;;;;;;;;;;5095096;28;24528;-57
2021/12/26 08:15:24;;;;;;;10.50;8.20;;;;;;;;;;5092214;28;24437;-56
2021/12/26 08:17:50;;;;;;;9.23;7.77;;;;;;;;;;5099201;28;25078;-57
2021/12/26 08:20:15;;;;;;;10.23;7.97;;;;;;;;;;5097311;28;24429;-56
2021/12/26 08:22:40;;;;;;;10.40;7.90;;;;;;;;;;5092673;28;24990;-56
2021/12/26 08:25:06;;;;;;;10.67;8.13;;;;;;;;;;5084604;28;24506;-56
2021/12/26 08:27:32;;;;;;;10.90;7.90;;;;;;;;;;5090769;28;24487;-56
2021/12/26 08:29:58;;;;;;;11.77;7.68;;;;;;;;;;5095878;28;24444;-56
2021/12/26 08:32:23;;;;;;;10.37;7.37;;;;;;;;;;5098404;28;24488;-56
2021/12/26 08:34:48;;;;;;;11.13;7.73;;;;;;;;;;5083298;28;24464;-57
2021/12/26 08:37:13;;;;;;;10.03;7.60;;;;;;;;;;5096248;28;24455;-57
2021/12/26 08:39:40;;;;;;;9.53;7.13;;;;;;;;;;5091100;28;24809;-56
2021/12/26 08:42:06;;;;;;;8.30;7.10;;;;;;;;;;5093052;28;24950;-56
2021/12/26 08:44:35;;;;;;;8.93;7.28;;;;;;;;;;5094466;28;24413;-56
2021/12/26 08:47:01;;;;;;;9.55;7.18;;;;;;;;;;5101037;28;24714;-56
2021/12/26 08:49:27;;;;;;;11.00;8.27;;;;;;;;;;5099837;28;24445;-56
2021/12/26 08:51:52;;;;;;;9.63;7.50;;;;;;;;;;5099006;28;24541;-55
2021/12/26 08:54:17;;;;;;;8.35;6.40;;;;;;;;;;5095646;28;24450;-55
2021/12/26 08:56:43;;;;;;;7.67;6.63;;;;;;;;;;5099567;28;24417;-57
2021/12/26 08:59:09;;;;;;;9.33;6.60;;;;;;;;;;5099968;28;24851;-57
2021/12/26 09:01:34;;;;;;;8.20;6.50;;;;;;;;;;5097489;28;24444;-56
2021/12/26 09:03:59;;;;;;;7.33;6.13;;;;;;;;;;5101588;28;24425;-57
2021/12/26 09:06:25;;;;;;;7.63;6.13;;;;;;;;;;5095370;28;24435;-55
2021/12/26 09:08:50;;;;;;;7.37;5.80;;;;;;;;;;5101400;28;24406;-57
2021/12/26 09:11:16;;;;;;;9.38;6.55;;;;;;;;;;5098178;28;24405;-58
2021/12/26 09:13:41;;;;;;;7.80;7.00;;;;;;;;;;5097578;28;24410;-57
2021/12/26 09:16:07;;;;;;;8.80;7.10;;;;;;;;;;5101863;28;24417;-57
2021/12/26 09:18:32;;;;;;;6.30;5.53;;;;;;;;;;5101419;28;24422;-56
2021/12/26 09:20:57;;;;;;;5.60;5.00;;;;;;;;;;5102062;28;24434;-56
2021/12/26 09:23:22;;;;;;;8.52;6.20;;;;;;;;;;5102823;28;24428;-53
2021/12/26 09:25:47;;;;;;;7.40;5.30;;;;;;;;;;5100289;28;24421;-53
2021/12/26 09:28:12;;;;;;;7.50;5.10;;;;;;;;;;5098843;28;24935;-56
2021/12/26 09:30:38;;;;;;;6.47;5.20;;;;;;;;;;5097245;28;24481;-56
2021/12/26 09:33:03;;;;;;;6.27;5.00;;;;;;;;;;5097011;28;25130;-56
2021/12/26 09:35:29;;;;;;;5.87;4.83;;;;;;;;;;5102006;28;24416;-57
2021/12/26 09:37:54;;;;;;;6.20;4.83;;;;;;;;;;5100567;28;25027;-56
2021/12/26 09:40:19;;;;;;;7.13;5.47;;;;;;;;;;5098754;28;24451;-57
2021/12/26 09:42:45;;;;;;;7.15;5.45;;;;;;;;;;5097771;28;24421;-55
2021/12/26 09:45:11;;;;;;;6.18;5.15;;;;;;;;;;5100763;28;24444;-55
2021/12/26 09:47:37;;;;;;;5.60;5.10;;;;;;;;;;5099119;28;24977;-56
2021/12/26 09:50:03;;;;;;;5.70;5.20;;;;;;;;;;5101083;28;24490;-56
2021/12/26 09:52:28;;;;;;;7.10;5.37;;;;;;;;;;5099949;28;24479;-57
2021/12/26 09:54:53;;;;;;;7.40;5.30;;;;;;;;;;5089426;28;24896;-56
2021/12/26 09:57:18;;;;;;;6.68;5.25;;;;;;;;;;5100539;28;24424;-56
2021/12/26 09:59:47;;;;;;;6.53;5.35;;;;;;;;;;5099020;28;24425;-56
2021/12/26 10:02:16;;;;;;;7.13;5.65;;;;;;;;;;5102045;28;25078;-56
2021/12/26 10:04:42;;;;;;;5.83;5.00;;;;;;;;;;5098004;28;24405;-56
2021/12/26 10:07:11;;;;;;;6.35;5.30;;;;;;;;;;5104201;28;25026;-56
2021/12/26 10:09:37;;;;;;;7.82;5.60;;;;;;;;;;5102953;28;24414;-56
2021/12/26 10:12:03;;;;;;;5.47;4.68;;;;;;;;;;5104374;28;25086;-56
2021/12/26 10:14:33;;;;;;;7.78;5.32;;;;;;;;;;5099181;28;24962;-56
2021/12/26 10:16:58;;;;;;;7.00;4.95;;;;;;;;;;5096745;28;24489;-56
2021/12/26 10:19:23;;;;;;;6.70;5.40;;;;;;;;;;5103689;28;24502;-55
2021/12/26 10:21:49;;;;;;;6.83;5.00;;;;;;;;;;5102231;28;24414;-55
2021/12/26 10:24:21;;;;;;;6.07;5.00;;;;;;;;;;5102139;28;24532;-56
2021/12/26 10:26:57;;;;;;;6.87;4.90;;;;;;;;;;5099546;28;24504;-55
2021/12/26 10:29:33;;;;;;;5.82;5.20;;;;;;;;;;5101336;28;24946;-55
2021/12/26 10:31:58;;;;;;;5.60;5.00;;;;;;;;;;5096720;28;24796;-56
2021/12/26 10:34:26;;;;;;;4.95;4.45;;;;;;;;;;5103594;28;24779;-57
2021/12/26 10:36:53;;;;;;;5.15;4.60;;;;;;;;;;5099167;28;25014;-56
2021/12/26 10:39:19;;;;;;;5.00;4.50;;;;;;;;;;5102104;28;24555;-57
2021/12/26 10:41:46;;;;;;;7.28;5.07;;;;;;;;;;5101146;28;24876;-57
2021/12/26 10:44:18;;;;;;;5.22;4.50;;;;;;;;;;5101105;28;24430;-56
2021/12/26 10:46:48;;;;;;;5.85;4.68;;;;;;;;;;5100633;28;24422;-56
2021/12/26 10:49:41;;;;;;;7.10;4.57;;;;;;;;;;5095054;28;24402;-56
2021/12/26 10:52:14;;;;;;;6.72;4.57;;;;;;;;;;5090359;28;24474;-56
2021/12/26 10:54:41;;;;;;;5.97;4.50;;;;;;;;;;5101201;28;24405;-56
2021/12/26 10:57:12;;;;;;;6.40;5.30;;;;;;;;;;5103446;28;24421;-56
2021/12/26 10:59:41;;;;;;;6.70;4.65;;;;;;;;;;5098589;28;24458;-56
2021/12/26 11:02:06;;;;;;;5.63;4.97;;;;;;;;;;5098536;28;24494;-56
2021/12/26 11:04:33;;;;;;;9.63;4.90;;;;;;;;;;5100726;28;24471;-56
2021/12/26 11:07:04;;;;;;;6.18;4.30;;;;;;;;;;5098096;28;24539;-57
2021/12/26 11:09:29;;;;;;;4.90;4.40;;;;;;;;;;5098543;28;24421;-57
2021/12/26 11:12:07;;;;;;;6.00;4.30;;;;;;;;;;5090171;28;24414;-56
2021/12/26 11:14:33;;;;;;;5.33;4.00;;;;;;;;;;5101224;28;24425;-56
2021/12/26 11:16:58;;;;;;;5.50;4.27;;;;;;;;;;5101964;28;24432;-55
2021/12/26 11:19:45;;;;;;;4.30;3.70;;;;;;;;;;5101078;28;24480;-57
2021/12/26 11:22:11;;;;;;;6.77;4.17;;;;;;;;;;5097371;28;24772;-57
2021/12/26 11:24:36;;;;;;;4.97;3.53;;;;;;;;;;5099217;28;24402;-57
2021/12/26 11:27:02;;;;;;;6.53;3.70;;;;;;;;;;5093484;28;25421;-57
2021/12/26 11:29:28;;;;;;;4.20;3.80;;;;;;;;;;5095795;28;24413;-57
2021/12/26 11:31:54;;;;;;;5.10;3.70;;;;;;;;;;5102853;28;24765;-57
2021/12/26 11:34:19;;;;;;;4.10;3.70;;;;;;;;;;5103858;28;25218;-57
2021/12/26 11:36:45;;;;;;;4.67;3.90;;;;;;;;;;5098884;28;24567;-56
2021/12/26 11:39:10;;;;;;;5.88;3.90;;;;;;;;;;5097389;28;24421;-56
2021/12/26 11:41:54;;;;;;;5.10;3.60;;;;;;;;;;5099456;28;24725;-56
2021/12/26 11:44:20;;;;;;;6.72;3.90;;;;;;;;;;5102430;28;24432;-57
2021/12/26 11:46:54;;;;;;;4.53;3.90;;;;;;;;;;5101539;28;24909;-56
2021/12/26 11:49:36;;;;;;;5.60;3.60;;;;;;;;;;5099138;28;24413;-56
2021/12/26 11:52:09;;;;;;;4.45;3.58;;;;;;;;;;5100629;28;24779;-56
2021/12/26 11:54:43;;;;;;;3.35;2.92;;;;;;;;;;5101042;28;24421;-56
2021/12/26 11:57:17;;;;;;;4.13;3.47;;;;;;;;;;5086932;28;24536;-56
2021/12/26 11:59:44;;;;;;;4.57;3.47;;;;;;;;;;5101079;28;24414;-56
2021/12/26 12:02:09;;;;;;;5.73;3.67;;;;;;;;;;5098479;28;24452;-56
2021/12/26 12:04:35;;;;;;;4.53;3.70;;;;;;;;;;5097471;28;24452;-55
2021/12/26 12:07:04;;;;;;;3.90;3.10;;;;;;;;;;5099573;28;24425;-56
2021/12/26 12:09:37;;;;;;;3.70;3.20;;;;;;;;;;5100278;28;24405;-55
2021/12/26 12:12:09;;;;;;;4.77;3.50;;;;;;;;;;5102851;28;24911;-55
2021/12/26 12:14:55;;;;;;;4.90;3.70;;;;;;;;;;5098902;28;24545;-55
2021/12/26 12:17:20;;;;;;;5.20;3.78;;;;;;;;;;5096582;28;24570;-56
2021/12/26 12:20:03;;;;;;;4.38;3.53;;;;;;;;;;5100373;28;24550;-55
2021/12/26 12:22:28;;;;;;;4.90;4.00;;;;;;;;;;5101665;28;24460;-56
2021/12/26 12:24:54;;;;;;;4.97;3.60;;;;;;;;;;5096372;28;24442;-56
2021/12/26 12:27:20;;;;;;;4.63;3.65;;;;;;;;;;5097120;28;24413;-57
2021/12/26 12:29:50;;;;;;;4.30;3.40;;;;;;;;;;5099344;28;24428;-57
2021/12/26 12:32:20;;;;;;;5.50;4.20;;;;;;;;;;5101820;28;24421;-56
2021/12/26 12:34:50;;;;;;;7.50;3.97;;;;;;;;;;5096341;28;25164;-56
2021/12/26 12:37:36;;;;;;;5.32;4.05;;;;;;;;;;5096164;28;24524;-56
2021/12/26 12:40:23;;;;;;;5.30;4.10;;;;;;;;;;5094668;28;24432;-57
2021/12/26 12:43:07;;;;;;;5.03;4.10;;;;;;;;;;5089159;28;24425;-56
2021/12/26 12:45:51;;;;;;;5.00;4.20;;;;;;;;;;5098864;28;24709;-56
2021/12/26 12:48:29;;;;;;;4.78;4.28;;;;;;;;;;5095698;28;24452;-57
2021/12/26 12:50:59;;;;;;;5.00;4.20;;;;;;;;;;5095623;28;24417;-57
2021/12/26 12:53:44;;;;;;;5.90;4.57;;;;;;;;;;5094098;28;24772;-56
2021/12/26 12:56:10;;;;;;;4.70;4.20;;;;;;;;;;5099037;28;24467;-57
2021/12/26 12:58:36;;;;;;;8.43;4.90;;;;;;;;;;5099226;28;24410;-57
2021/12/26 13:01:03;;;;;;;6.25;4.90;;;;;;;;;;5098174;28;24414;-56
2021/12/26 13:03:29;;;;;;;5.40;4.40;;;;;;;;;;5095509;28;24445;-55
2021/12/26 13:05:54;;;;;;;6.10;4.30;;;;;;;;;;5094967;28;24996;-56
2021/12/26 13:08:20;;;;;;;6.17;4.63;;;;;;;;;;5098881;28;24523;-56
2021/12/26 13:10:50;;;;;;;5.90;5.00;;;;;;;;;;5097586;28;24492;-57
2021/12/26 13:13:16;;;;;;;8.30;5.57;;;;;;;;;;5100057;28;24464;-57
2021/12/26 13:16:02;;;;;;;6.13;4.97;;;;;;;;;;5094178;28;24425;-56
2021/12/26 13:18:32;;;;;;;6.50;5.33;;;;;;;;;;5082938;28;25284;-56
2021/12/26 13:21:03;;;;;;;7.20;5.07;;;;;;;;;;5099484;28;24421;-56
2021/12/26 13:23:29;;;;;;;5.68;4.80;;;;;;;;;;5103388;28;24432;-55
2021/12/26 13:25:56;;;;;;;6.32;4.90;;;;;;;;;;5099824;28;24436;-56
2021/12/26 13:28:25;;;;;;;6.70;5.18;;;;;;;;;;5097827;28;24389;-56
2021/12/26 13:30:53;;;;;;;5.88;4.70;;;;;;;;;;5101887;28;24402;-56
2021/12/26 13:33:21;;;;;;;6.00;4.60;;;;;;;;;;5099490;28;25040;-56
2021/12/26 13:35:46;;;;;;;5.80;5.20;;;;;;;;;;5101220;28;24471;-56
2021/12/26 13:38:11;;;;;;;6.50;4.97;;;;;;;;;;5094383;28;24881;-56
2021/12/26 13:40:38;;;;;;;5.40;4.73;;;;;;;;;;5099331;28;24428;-56
2021/12/26 13:43:04;;;;;;;6.75;5.10;;;;;;;;;;5097733;28;24866;-56
2021/12/26 13:45:30;;;;;;;8.00;5.10;;;;;;;;;;5101104;28;24497;-57
2021/12/26 13:47:55;;;;;;;6.40;5.05;;;;;;;;;;5084460;28;24421;-57
2021/12/26 13:50:20;;;;;;;7.20;5.30;;;;;;;;;;5097464;28;24825;-56
2021/12/26 13:52:57;;;;;;;6.25;4.70;;;;;;;;;;5096247;28;24821;-57
2021/12/26 13:55:23;;;;;;;6.57;5.30;;;;;;;;;;5097163;28;25093;-57
2021/12/26 13:57:55;;;;;;;5.25;4.70;;;;;;;;;;5096644;28;24820;-57
2021/12/26 14:00:20;;;;;;;7.20;5.45;;;;;;;;;;5100624;28;24475;-57
2021/12/26 14:02:46;;;;;;;6.90;5.03;;;;;;;;;;5096756;28;24441;-56
2021/12/26 14:05:12;;;;;;;8.00;5.33;;;;;;;;;;5099644;28;24421;-56
2021/12/26 14:07:43;;;;;;;6.70;5.20;;;;;;;;;;5099413;28;24535;-57
2021/12/26 14:10:12;;;;;;;7.82;4.88;;;;;;;;;;5099903;28;25176;-56
2021/12/26 14:12:39;;;;;;;6.55;4.90;;;;;;;;;;5099294;28;25064;-56
2021/12/26 14:15:24;;;;;;;6.82;4.63;;;;;;;;;;5095744;28;24466;-57
2021/12/26 14:17:54;;;;;;;5.47;4.88;;;;;;;;;;5095588;28;24476;-56
2021/12/26 14:20:19;;;;;;;6.65;4.60;;;;;;;;;;5100351;28;24471;-56
2021/12/26 14:22:44;;;;;;;6.80;4.30;;;;;;;;;;5100468;28;24510;-57
2021/12/26 14:25:10;;;;;;;6.90;5.17;;;;;;;;;;5095504;28;24418;-57
2021/12/26 14:27:35;;;;;;;5.63;5.00;;;;;;;;;;5099928;28;24494;-57
2021/12/26 14:30:01;;;;;;;7.40;4.50;;;;;;;;;;5101938;28;24819;-56
2021/12/26 14:32:26;;;;;;;5.38;4.53;;;;;;;;;;5100649;28;24410;-55
2021/12/26 14:34:51;;;;;;;5.60;4.40;;;;;;;;;;5099273;28;24421;-56
2021/12/26 14:37:21;;;;;;;5.87;4.70;;;;;;;;;;5097300;28;24930;-56
2021/12/26 14:39:46;;;;;;;7.80;4.90;;;;;;;;;;5096023;28;24413;-56
2021/12/26 14:42:14;;;;;;;7.30;5.00;;;;;;;;;;5101286;28;25060;-56